Time;durP1;ratioP1;P1;durP2;ratioP2;P2;SDS_P1;SDS_P2;PMS_P1;PMS_P2;Temp;Humidity;BMP_temperature;BMP_pressure;BME280_temperature;BME280_humidity;BME280_pressure;Samples;Min_cycle;Max_cycle;Signal;HPM_P1;HPM_P2
2022/12/23 00:00:23;;;;;;;2.38;0.60;;;19.90;99.90;;;;;;4899584;29;20213;-70
2022/12/23 00:02:50;;;;;;;2.20;0.77;;;19.90;99.90;;;;;;4899438;29;20229;-70
2022/12/23 00:05:17;;;;;;;1.80;0.70;;;20.00;99.90;;;;;;4899215;29;20566;-70
2022/12/23 00:07:44;;;;;;;1.95;0.80;;;20.00;99.90;;;;;;4899416;29;20205;-70
2022/12/23 00:10:12;;;;;;;1.50;0.70;;;20.00;99.90;;;;;;4899420;29;20273;-72
2022/12/23 00:15:23;;;;;;;4.25;0.60;;;20.00;99.90;;;;;;4899267;29;20216;-71
2022/12/23 00:17:50;;;;;;;9.40;0.80;;;20.10;99.90;;;;;;4899242;29;20205;-71
2022/12/23 00:20:17;;;;;;;2.35;0.68;;;20.10;99.90;;;;;;4899217;29;20201;-71
2022/12/23 00:25:43;;;;;;;0.82;0.80;;;20.10;99.90;;;;;;4895533;29;20249;-70
2022/12/23 00:28:11;;;;;;;4.57;0.80;;;20.10;99.90;;;;;;4898826;29;20619;-70
2022/12/23 00:30:43;;;;;;;6.93;0.95;;;20.10;99.90;;;;;;4899058;29;20257;-71
2022/12/23 00:33:10;;;;;;;4.35;0.90;;;20.00;99.90;;;;;;4899050;29;20197;-71
2022/12/23 00:35:37;;;;;;;5.57;0.60;;;20.10;99.90;;;;;;4898971;29;20233;-71
2022/12/23 00:38:03;;;;;;;5.43;0.70;;;20.00;99.90;;;;;;4898989;29;20573;-71
2022/12/23 00:43:16;;;;;;;0.80;0.68;;;20.10;99.90;;;;;;4899206;29;20263;-71
2022/12/23 00:45:42;;;;;;;4.95;0.90;;;20.00;99.90;;;;;;4898598;29;20208;-71
2022/12/23 00:50:53;;;;;;;1.05;0.77;;;20.00;99.90;;;;;;4898845;29;20261;-72
2022/12/23 00:53:22;;;;;;;2.40;0.73;;;20.00;99.90;;;;;;4898562;29;20201;-72
2022/12/23 07:23:21;;;;;;;3.20;0.40;;;19.90;99.90;;;;;;4898947;29;20684;-74
2022/12/23 07:25:47;;;;;;;1.85;0.52;;;19.90;99.90;;;;;;4900622;29;20190;-73
2022/12/23 07:28:14;;;;;;;9.15;0.47;;;20.00;99.90;;;;;;4900283;29;20205;-73
2022/12/23 07:30:41;;;;;;;3.08;0.70;;;20.00;99.90;;;;;;4900156;29;20209;-74
2022/12/23 07:33:07;;;;;;;0.63;0.43;;;20.00;99.90;;;;;;4899886;29;20213;-74
2022/12/23 07:35:34;;;;;;;5.05;0.50;;;20.00;99.90;;;;;;4900477;29;20222;-74
2022/12/23 07:38:01;;;;;;;2.67;0.30;;;20.00;99.90;;;;;;4900085;29;20578;-74
2022/12/23 07:40:29;;;;;;;1.98;0.30;;;20.00;99.90;;;;;;4899974;29;20205;-74
2022/12/23 07:42:58;;;;;;;0.35;0.30;;;20.00;99.90;;;;;;4900009;29;20202;-74
2022/12/23 07:45:25;;;;;;;2.08;0.40;;;19.90;99.90;;;;;;4899925;29;20209;-74
2022/12/23 07:47:53;;;;;;;1.00;0.30;;;19.90;99.90;;;;;;4899588;29;20576;-73
2022/12/23 07:50:19;;;;;;;2.78;0.47;;;20.00;99.90;;;;;;4899836;29;20331;-73
2022/12/23 07:52:46;;;;;;;0.45;0.43;;;20.00;99.90;;;;;;4899734;29;20233;-72
2022/12/23 07:55:13;;;;;;;1.15;0.40;;;20.00;99.90;;;;;;4899618;29;20233;-73
2022/12/23 07:57:41;;;;;;;1.00;0.40;;;20.00;99.90;;;;;;4899703;29;20217;-73
2022/12/23 08:00:10;;;;;;;0.98;0.57;;;20.00;99.90;;;;;;4899373;29;20213;-73
2022/12/23 08:02:37;;;;;;;1.00;0.50;;;19.90;99.90;;;;;;4899551;29;20248;-75
2022/12/23 08:05:04;;;;;;;6.38;1.10;;;20.00;99.90;;;;;;4900317;29;20198;-75
2022/12/23 08:07:31;;;;;;;5.60;1.00;;;19.90;99.90;;;;;;4899587;29;20205;-74
2022/12/23 08:09:57;;;;;;;14.68;2.45;;;19.90;99.90;;;;;;4899738;29;20209;-74
2022/12/23 08:12:24;;;;;;;12.48;1.35;;;19.90;99.90;;;;;;4899418;29;20225;-75
2022/12/23 08:14:53;;;;;;;6.10;1.15;;;19.90;99.90;;;;;;4899295;29;20221;-75
2022/12/23 08:17:20;;;;;;;6.05;1.00;;;20.00;99.90;;;;;;4899242;29;20685;-75
2022/12/23 08:19:47;;;;;;;15.32;2.10;;;20.00;99.90;;;;;;4899899;29;20255;-77
2022/12/23 08:22:14;;;;;;;18.25;2.05;;;20.00;99.90;;;;;;4899278;29;20221;-78
2022/12/23 08:24:40;;;;;;;26.40;3.15;;;20.10;99.90;;;;;;4899277;29;20221;-76
2022/12/23 08:27:07;;;;;;;18.23;2.60;;;20.10;99.90;;;;;;4899418;29;20205;-75
2022/12/23 08:29:34;;;;;;;20.40;2.55;;;20.10;99.90;;;;;;4899697;29;20220;-74
2022/12/23 08:32:02;;;;;;;9.88;1.70;;;20.10;99.90;;;;;;4899283;29;20289;-74
2022/12/23 08:34:28;;;;;;;12.63;2.53;;;20.10;99.90;;;;;;4899113;29;20201;-74
2022/12/23 08:36:55;;;;;;;5.95;2.28;;;20.00;99.90;;;;;;4899119;29;20202;-72
2022/12/23 08:39:22;;;;;;;5.90;2.60;;;20.00;99.90;;;;;;4899206;29;20208;-72
2022/12/23 08:41:48;;;;;;;14.32;2.15;;;19.90;99.90;;;;;;4898939;29;20257;-74
2022/12/23 08:44:16;;;;;;;10.13;2.13;;;19.90;99.90;;;;;;4898982;29;20209;-73
2022/12/23 08:46:43;;;;;;;12.38;2.20;;;19.90;99.90;;;;;;4899457;29;20201;-75
2022/12/23 08:49:11;;;;;;;6.45;1.80;;;19.80;99.90;;;;;;4899675;29;20677;-74
2022/12/23 08:51:40;;;;;;;8.38;2.20;;;19.80;99.90;;;;;;4902600;29;20233;-72
2022/12/23 08:54:07;;;;;;;17.67;2.05;;;19.90;99.90;;;;;;4900940;29;20662;-72
2022/12/23 08:56:35;;;;;;;6.40;1.92;;;19.90;99.90;;;;;;4901130;29;20622;-72
2022/12/23 08:59:03;;;;;;;7.10;1.98;;;19.80;99.90;;;;;;4901165;29;20205;-72
2022/12/23 09:01:32;;;;;;;12.77;2.13;;;19.90;99.90;;;;;;4900368;29;20225;-72
2022/12/23 09:04:02;;;;;;;7.13;1.92;;;19.90;99.90;;;;;;4900446;29;20217;-73
2022/12/23 09:06:33;;;;;;;11.48;1.77;;;20.00;99.90;;;;;;4898589;29;20186;-74
2022/12/23 09:09:00;;;;;;;8.60;1.73;;;20.00;99.90;;;;;;4898730;29;20242;-70
2022/12/23 09:11:28;;;;;;;11.15;1.90;;;20.00;99.90;;;;;;4899734;29;20732;-70
2022/12/23 09:13:56;;;;;;;10.75;1.83;;;19.90;99.90;;;;;;4899986;29;20284;-69
2022/12/23 09:16:23;;;;;;;8.60;1.45;;;19.90;99.90;;;;;;4899725;29;20226;-67
2022/12/23 09:18:49;;;;;;;7.93;1.77;;;20.00;99.90;;;;;;4899783;29;20583;-67
2022/12/23 09:21:18;;;;;;;8.38;1.92;;;20.00;99.90;;;;;;4898631;29;20221;-68
2022/12/23 09:23:46;;;;;;;19.35;2.08;;;20.00;99.90;;;;;;4898713;29;20224;-67
2022/12/23 09:26:19;;;;;;;8.82;2.58;;;20.00;99.90;;;;;;4898478;29;20225;-67
2022/12/23 09:28:45;;;;;;;10.52;2.13;;;20.00;99.90;;;;;;4898510;29;20198;-67
2022/12/23 09:31:13;;;;;;;6.88;2.30;;;20.00;99.90;;;;;;4898353;29;20225;-67
2022/12/23 09:33:40;;;;;;;8.30;2.30;;;19.90;99.90;;;;;;4898392;29;20202;-67
2022/12/23 09:36:08;;;;;;;9.85;1.98;;;19.90;99.90;;;;;;4898321;29;20276;-67
2022/12/23 09:38:35;;;;;;;10.15;2.25;;;19.90;99.90;;;;;;4898384;29;20340;-67
2022/12/23 09:41:11;;;;;;;9.30;2.13;;;20.00;99.90;;;;;;4898326;29;20240;-67
2022/12/23 09:43:48;;;;;;;12.00;2.10;;;19.90;99.90;;;;;;4898409;29;20201;-67
2022/12/23 09:46:18;;;;;;;10.45;1.70;;;19.90;99.90;;;;;;4898311;29;20189;-67
2022/12/23 09:48:54;;;;;;;5.00;1.60;;;19.90;99.90;;;;;;4898610;29;20573;-67
2022/12/23 09:51:23;;;;;;;8.20;2.10;;;19.90;99.90;;;;;;4898334;29;20232;-67
2022/12/23 09:53:56;;;;;;;8.63;1.98;;;19.90;99.90;;;;;;4898050;29;20572;-67
2022/12/23 09:56:34;;;;;;;6.22;1.90;;;19.90;99.90;;;;;;4898214;29;20297;-67
2022/12/23 09:59:08;;;;;;;10.23;1.75;;;19.90;99.90;;;;;;4898316;29;20197;-67
2022/12/23 10:01:40;;;;;;;13.50;1.85;;;19.90;99.90;;;;;;4898182;29;20230;-67
2022/12/23 10:04:30;;;;;;;14.77;2.20;;;19.90;99.90;;;;;;4898280;29;20276;-67
2022/12/23 10:07:14;;;;;;;7.18;1.92;;;19.90;99.90;;;;;;4898170;29;20182;-67
2022/12/23 10:09:43;;;;;;;7.80;1.92;;;19.80;99.90;;;;;;4897908;29;20649;-67
2022/12/23 10:12:19;;;;;;;8.13;2.05;;;19.90;99.90;;;;;;4898019;29;20229;-67
2022/12/23 10:14:48;;;;;;;8.27;1.70;;;19.80;99.90;;;;;;4898083;29;20221;-68
2022/12/23 10:17:25;;;;;;;15.23;2.53;;;19.90;99.90;;;;;;4898346;29;20609;-67
2022/12/23 10:19:55;;;;;;;11.50;1.70;;;19.80;99.90;;;;;;4900880;29;20194;-68
2022/12/23 10:22:26;;;;;;;6.65;2.05;;;19.90;99.90;;;;;;4901448;29;20578;-68
2022/12/23 10:24:55;;;;;;;5.00;1.40;;;19.90;99.90;;;;;;4901468;29;20300;-68
2022/12/23 10:27:29;;;;;;;5.00;1.70;;;19.80;99.90;;;;;;4901395;29;20216;-68
2022/12/23 10:29:59;;;;;;;6.32;2.00;;;19.80;99.90;;;;;;4901054;29;20637;-68
2022/12/23 10:32:37;;;;;;;10.20;2.00;;;19.80;99.90;;;;;;4900925;29;20593;-68
2022/12/23 10:35:13;;;;;;;12.00;2.53;;;19.80;99.90;;;;;;4900846;29;20660;-68
2022/12/23 10:37:45;;;;;;;14.90;1.67;;;19.90;99.90;;;;;;4901201;29;20196;-68
2022/12/23 10:40:19;;;;;;;9.40;1.92;;;20.00;99.90;;;;;;4901166;29;20275;-68
2022/12/23 10:42:56;;;;;;;10.35;1.92;;;19.90;99.90;;;;;;4901072;29;20229;-68
2022/12/23 10:45:31;;;;;;;3.75;1.77;;;19.90;99.90;;;;;;4901101;29;20317;-68
2022/12/23 10:48:13;;;;;;;14.13;1.60;;;19.90;99.90;;;;;;4901035;29;20193;-67
2022/12/23 10:50:53;;;;;;;5.25;1.63;;;19.90;99.90;;;;;;4901118;29;20190;-67
2022/12/23 10:53:32;;;;;;;9.15;1.23;;;19.90;99.90;;;;;;4900935;29;20200;-66
2022/12/23 10:55:59;;;;;;;10.57;1.52;;;20.00;99.90;;;;;;4900799;29;20210;-66
2022/12/23 10:58:28;;;;;;;8.50;2.00;;;20.00;99.90;;;;;;4900792;29;20212;-66
2022/12/23 11:00:56;;;;;;;12.38;2.20;;;20.20;99.90;;;;;;4900675;29;20233;-69
2022/12/23 11:03:28;;;;;;;6.65;1.55;;;19.90;99.90;;;;;;4900386;29;20707;-69
2022/12/23 11:05:56;;;;;;;10.05;1.92;;;20.00;99.70;;;;;;4900695;29;20186;-70
2022/12/23 11:08:26;;;;;;;9.23;1.67;;;19.90;99.80;;;;;;4900622;29;20205;-70
2022/12/23 11:10:53;;;;;;;10.38;1.85;;;19.90;99.90;;;;;;4900513;29;20229;-70
2022/12/23 11:13:34;;;;;;;8.85;1.42;;;19.90;99.90;;;;;;4900517;29;20210;-69
2022/12/23 11:16:15;;;;;;;6.47;1.80;;;19.90;99.90;;;;;;4900491;29;20218;-70
2022/12/23 11:19:14;;;;;;;6.35;1.67;;;19.90;99.40;;;;;;4900484;29;20205;-69
2022/12/23 11:21:54;;;;;;;6.18;1.67;;;19.90;99.80;;;;;;4868478;29;20725;-69
2022/12/23 11:24:22;;;;;;;12.30;1.70;;;19.90;99.90;;;;;;4900119;29;20304;-69
2022/12/23 11:26:58;;;;;;;8.35;1.42;;;19.90;99.90;;;;;;4899960;29;20569;-69
2022/12/23 11:29:30;;;;;;;7.45;1.50;;;19.90;99.90;;;;;;4899926;29;20253;-69
2022/12/23 11:31:57;;;;;;;3.72;1.17;;;19.80;99.90;;;;;;4900155;29;20228;-69
2022/12/23 11:34:26;;;;;;;10.70;1.63;;;19.80;99.90;;;;;;4900196;29;20614;-68
2022/12/23 11:36:55;;;;;;;13.57;1.83;;;19.80;99.90;;;;;;4899979;29;20232;-69
2022/12/23 11:39:26;;;;;;;10.43;1.38;;;19.80;99.90;;;;;;4900174;29;20212;-69
2022/12/23 11:42:01;;;;;;;7.78;1.80;;;19.90;99.90;;;;;;4900015;29;20230;-67
2022/12/23 11:44:34;;;;;;;7.47;1.80;;;19.80;99.10;;;;;;4899994;29;20200;-69
2022/12/23 11:47:19;;;;;;;4.05;1.27;;;19.80;99.30;;;;;;4899944;29;20190;-69
2022/12/23 11:49:48;;;;;;;5.63;1.42;;;19.90;99.60;;;;;;4899901;29;20221;-69
2022/12/23 11:52:19;;;;;;;5.88;1.40;;;19.90;99.70;;;;;;4899724;29;20257;-69
2022/12/23 11:54:51;;;;;;;7.97;1.52;;;19.90;99.80;;;;;;4899803;29;20197;-70
2022/12/23 11:57:23;;;;;;;7.30;1.60;;;20.00;99.70;;;;;;4899652;29;20220;-70
2022/12/23 11:59:57;;;;;;;7.30;1.40;;;20.00;99.60;;;;;;4899944;29;20201;-70
2022/12/23 12:02:31;;;;;;;14.05;1.50;;;20.00;99.50;;;;;;4899635;29;20224;-70
2022/12/23 12:05:02;;;;;;;3.88;1.65;;;20.00;99.40;;;;;;4899642;29;20190;-70
2022/12/23 12:07:30;;;;;;;6.63;1.20;;;20.00;99.20;;;;;;4899581;29;20276;-71
2022/12/23 12:09:58;;;;;;;6.90;1.70;;;20.00;99.20;;;;;;4899467;29;20693;-70
2022/12/23 12:12:27;;;;;;;4.93;1.17;;;20.00;99.10;;;;;;4899467;29;20253;-70
2022/12/23 12:14:57;;;;;;;4.28;1.67;;;20.00;99.20;;;;;;4899332;29;20202;-69
2022/12/23 12:17:31;;;;;;;6.22;1.45;;;19.90;99.10;;;;;;4899398;29;20225;-70
2022/12/23 12:20:03;;;;;;;6.25;1.45;;;19.90;99.20;;;;;;4899160;29;20185;-70
2022/12/23 12:22:36;;;;;;;4.80;1.55;;;19.90;99.40;;;;;;4898896;29;20293;-70
2022/12/23 12:25:16;;;;;;;6.70;1.65;;;19.90;99.30;;;;;;4898905;29;20228;-70
2022/12/23 12:27:47;;;;;;;5.05;1.50;;;19.90;99.30;;;;;;4899139;29;20228;-70
2022/12/23 12:30:18;;;;;;;13.02;1.42;;;19.90;99.60;;;;;;4899144;29;20194;-70
2022/12/23 12:32:56;;;;;;;13.68;2.10;;;19.90;99.90;;;;;;4899066;29;20650;-70
2022/12/23 12:35:30;;;;;;;4.97;1.33;;;19.90;99.90;;;;;;4898786;29;20664;-69
2022/12/23 12:38:02;;;;;;;7.60;1.33;;;19.90;99.90;;;;;;4898947;29;20209;-69
2022/12/23 12:40:35;;;;;;;10.63;1.90;;;19.90;99.90;;;;;;4898298;29;20194;-69
2022/12/23 12:43:10;;;;;;;7.05;1.88;;;19.90;99.90;;;;;;4898812;29;20198;-70
2022/12/23 12:45:43;;;;;;;13.10;2.80;;;19.80;99.40;;;;;;4898943;29;20189;-71
2022/12/23 12:48:31;;;;;;;14.50;2.95;;;19.80;99.40;;;;;;4898939;29;20193;-70
2022/12/23 12:51:02;;;;;;;13.07;3.80;;;19.80;99.30;;;;;;4898723;29;20225;-69
2022/12/23 12:53:31;;;;;;;18.90;3.63;;;19.90;99.70;;;;;;4898814;29;20598;-69
2022/12/23 12:56:05;;;;;;;14.48;3.38;;;19.80;99.50;;;;;;4898642;29;20216;-69
2022/12/23 12:58:32;;;;;;;14.98;3.78;;;19.80;99.80;;;;;;4898672;29;20201;-69
2022/12/23 13:01:15;;;;;;;28.02;4.38;;;19.90;99.90;;;;;;4898325;29;20708;-70
2022/12/23 13:04:07;;;;;;;13.10;3.53;;;19.90;99.90;;;;;;4898700;29;20194;-71
2022/12/23 13:06:41;;;;;;;14.90;3.95;;;19.90;99.90;;;;;;4898649;29;20189;-71
2022/12/23 13:09:16;;;;;;;17.17;4.25;;;20.00;99.90;;;;;;4898305;29;20190;-71
2022/12/23 13:11:49;;;;;;;13.15;3.70;;;20.10;99.90;;;;;;4898582;29;20276;-74
2022/12/23 13:14:28;;;;;;;17.30;4.05;;;20.10;99.90;;;;;;4898556;29;20205;-71
2022/12/23 13:17:03;;;;;;;9.93;3.60;;;20.00;99.90;;;;;;4898501;29;20213;-71
2022/12/23 13:19:38;;;;;;;21.98;4.38;;;20.00;99.90;;;;;;4898505;29;20197;-71
2022/12/23 13:22:08;;;;;;;17.20;3.75;;;20.00;99.90;;;;;;4898530;29;20224;-71
2022/12/23 13:24:44;;;;;;;21.25;4.07;;;20.00;99.90;;;;;;4898348;29;20217;-72
2022/12/23 13:27:14;;;;;;;19.30;4.45;;;20.00;99.90;;;;;;4898195;29;20225;-70
2022/12/23 13:30:02;;;;;;;24.02;5.20;;;19.90;99.90;;;;;;4898423;29;20212;-70
2022/12/23 13:32:52;;;;;;;18.65;4.53;;;20.00;99.90;;;;;;4898406;29;20224;-71
2022/12/23 13:35:35;;;;;;;14.43;3.97;;;20.00;99.90;;;;;;4919199;23;20229;-73
2022/12/23 13:38:14;;;;;;;27.35;5.00;;;20.00;99.90;;;;;;4898293;29;20213;-73
2022/12/23 13:40:54;;;;;;;25.30;4.43;;;20.00;99.90;;;;;;4898462;29;20225;-72
2022/12/23 13:43:23;;;;;;;14.55;3.75;;;20.00;99.90;;;;;;4898422;29;20196;-71
2022/12/23 13:45:53;;;;;;;18.02;4.57;;;20.00;99.90;;;;;;4898261;29;20229;-74
2022/12/23 13:48:33;;;;;;;22.58;5.13;;;20.00;99.90;;;;;;4898366;29;20206;-74
2022/12/23 13:51:06;;;;;;;22.42;3.78;;;19.90;99.90;;;;;;4898098;29;20200;-73
2022/12/23 13:53:48;;;;;;;18.20;3.65;;;19.90;99.90;;;;;;4900920;29;20190;-73
2022/12/23 13:56:29;;;;;;;16.40;4.40;;;19.90;99.90;;;;;;4901802;29;20230;-73
2022/12/23 13:58:57;;;;;;;12.70;3.63;;;20.00;99.90;;;;;;4901657;29;20642;-73
2022/12/23 14:01:34;;;;;;;15.38;3.55;;;20.00;99.90;;;;;;4901977;29;20205;-73
2022/12/23 14:04:32;;;;;;;15.90;3.80;;;19.90;99.90;;;;;;4901547;29;20197;-73
2022/12/23 14:07:01;;;;;;;16.30;3.90;;;19.90;99.90;;;;;;4901762;29;20206;-73
2022/12/23 14:09:31;;;;;;;9.70;3.85;;;19.90;99.90;;;;;;4901417;29;20213;-73
2022/12/23 14:12:11;;;;;;;13.23;3.47;;;19.80;99.90;;;;;;4901573;29;20554;-73
2022/12/23 14:14:47;;;;;;;13.30;3.80;;;19.90;99.90;;;;;;4901219;29;20650;-73
2022/12/23 14:17:22;;;;;;;17.58;3.92;;;20.00;99.90;;;;;;4901564;29;20213;-74
2022/12/23 14:20:12;;;;;;;10.20;3.33;;;20.00;99.90;;;;;;4901549;29;20196;-73
2022/12/23 14:22:55;;;;;;;13.10;4.10;;;20.00;99.90;;;;;;4901890;29;20642;-73
2022/12/23 14:25:44;;;;;;;10.63;3.55;;;20.00;99.90;;;;;;4901877;29;20320;-73
2022/12/23 14:28:24;;;;;;;13.82;3.63;;;20.00;99.90;;;;;;4900142;29;20323;-72
2022/12/23 14:30:51;;;;;;;15.32;3.70;;;20.10;99.90;;;;;;4904111;29;20193;-72
2022/12/23 14:33:24;;;;;;;14.60;3.78;;;20.10;99.90;;;;;;4909064;29;20221;-73
2022/12/23 14:35:57;;;;;;;9.82;3.08;;;20.00;99.90;;;;;;4908673;29;20273;-73
2022/12/23 14:38:27;;;;;;;19.77;4.18;;;20.00;99.90;;;;;;4908822;29;20206;-73
2022/12/23 14:41:21;;;;;;;13.23;3.35;;;20.00;99.90;;;;;;4908329;29;20198;-72
2022/12/23 14:43:55;;;;;;;13.98;3.45;;;20.00;99.90;;;;;;4908104;29;20546;-73
2022/12/23 14:46:57;;;;;;;12.38;3.08;;;20.00;99.90;;;;;;4905673;29;20224;-73
2022/12/23 14:49:41;;;;;;;14.38;2.72;;;20.00;99.90;;;;;;4906545;29;20205;-72
2022/12/23 14:52:57;;;;;;;12.30;2.58;;;20.00;99.90;;;;;;4905808;29;20229;-72
2022/12/23 14:55:46;;;;;;;20.00;3.08;;;20.00;99.90;;;;;;4906311;29;20230;-73
2022/12/23 14:58:34;;;;;;;12.90;2.97;;;19.90;99.90;;;;;;4907762;29;20212;-73
2022/12/23 15:01:04;;;;;;;9.10;3.15;;;19.80;99.90;;;;;;4907577;29;20539;-73
2022/12/23 15:03:34;;;;;;;11.77;3.17;;;19.90;99.90;;;;;;4905585;29;20194;-75
2022/12/23 15:06:07;;;;;;;13.00;3.03;;;19.90;99.90;;;;;;4906280;29;20229;-73
2022/12/23 15:08:37;;;;;;;8.25;2.70;;;19.90;99.90;;;;;;4906234;29;20193;-74
2022/12/23 15:11:09;;;;;;;8.65;2.92;;;19.80;99.90;;;;;;4900688;29;20673;-72
2022/12/23 15:13:36;;;;;;;9.57;2.75;;;;;;;;;;4900597;29;20193;-71
2022/12/23 15:16:03;;;;;;;6.70;2.30;;;19.80;99.90;;;;;;4900153;29;20717;-71
2022/12/23 15:18:30;;;;;;;11.30;2.95;;;19.90;99.90;;;;;;4900467;29;20206;-74
2022/12/23 15:21:01;;;;;;;10.60;2.63;;;20.00;99.90;;;;;;4900575;29;20209;-72
2022/12/23 15:23:28;;;;;;;10.02;2.45;;;20.00;99.90;;;;;;4900297;29;20572;-73
2022/12/23 15:25:58;;;;;;;9.77;2.33;;;20.00;99.90;;;;;;4900286;29;20225;-74
2022/12/23 15:28:36;;;;;;;7.30;2.30;;;20.00;99.90;;;;;;4901072;29;20201;-75
2022/12/23 15:31:04;;;;;;;11.95;2.78;;;20.00;99.90;;;;;;4900017;29;20198;-74
2022/12/23 15:33:34;;;;;;;14.80;2.78;;;20.00;99.90;;;;;;4900188;29;20209;-74
2022/12/23 15:36:03;;;;;;;8.48;2.38;;;20.00;99.90;;;;;;4899666;29;20234;-76
2022/12/23 15:38:33;;;;;;;12.73;2.55;;;20.00;99.90;;;;;;4899658;29;20667;-74
2022/12/23 15:41:01;;;;;;;7.57;2.17;;;20.10;99.90;;;;;;4899898;29;20554;-75
2022/12/23 15:43:29;;;;;;;8.02;2.22;;;20.00;99.90;;;;;;4899902;29;20209;-74
2022/12/23 15:46:06;;;;;;;7.30;1.88;;;20.00;99.90;;;;;;4899785;29;20226;-75
2022/12/23 15:48:34;;;;;;;10.73;2.05;;;20.00;99.90;;;;;;4900023;29;20190;-74
2022/12/23 15:51:04;;;;;;;8.52;1.95;;;20.00;99.90;;;;;;4899947;29;20245;-74
2022/12/23 15:53:34;;;;;;;13.98;2.80;;;20.00;99.90;;;;;;4899887;29;20194;-74
2022/12/23 15:56:06;;;;;;;6.00;1.92;;;20.00;99.90;;;;;;4899806;29;20226;-74
2022/12/23 15:58:37;;;;;;;8.93;1.80;;;19.90;99.90;;;;;;4899639;29;20249;-74
2022/12/23 16:01:05;;;;;;;6.10;1.95;;;19.90;99.90;;;;;;4899676;29;20272;-75
2022/12/23 16:03:34;;;;;;;7.55;1.83;;;19.90;99.90;;;;;;4899323;29;20198;-75
2022/12/23 16:06:09;;;;;;;8.77;2.13;;;19.90;99.90;;;;;;4899571;29;20226;-75
2022/12/23 16:08:37;;;;;;;9.85;2.33;;;19.80;99.90;;;;;;4899466;29;20201;-75
2022/12/23 16:11:11;;;;;;;7.25;1.83;;;19.70;99.90;;;;;;4899155;29;20681;-75
2022/12/23 16:13:40;;;;;;;7.07;2.03;;;19.80;99.90;;;;;;4900048;29;20194;-75
2022/12/23 16:16:28;;;;;;;6.47;2.10;;;19.80;99.90;;;;;;4898422;29;20222;-75
2022/12/23 16:18:54;;;;;;;6.68;1.90;;;19.90;99.90;;;;;;4899271;29;20217;-75
2022/12/23 16:21:27;;;;;;;5.45;1.98;;;19.80;99.90;;;;;;4899252;29;20205;-75
2022/12/23 16:23:54;;;;;;;5.88;2.28;;;19.80;99.90;;;;;;4899210;29;20638;-75
2022/12/23 16:26:21;;;;;;;5.60;1.67;;;19.90;99.90;;;;;;4898800;29;20713;-75
2022/12/23 16:28:52;;;;;;;3.83;1.77;;;19.90;99.90;;;;;;4899266;29;20198;-75
2022/12/23 16:31:20;;;;;;;4.20;1.45;;;19.90;99.90;;;;;;4898926;29;20661;-75
2022/12/23 16:33:50;;;;;;;3.78;1.70;;;19.90;99.90;;;;;;4899173;29;20205;-75
2022/12/23 16:36:19;;;;;;;6.78;2.17;;;20.00;99.90;;;;;;4898718;29;20230;-75
2022/12/23 16:38:46;;;;;;;5.43;1.60;;;20.00;99.90;;;;;;4898972;29;20225;-75
2022/12/23 16:41:13;;;;;;;6.68;1.85;;;20.00;99.90;;;;;;4899001;29;20209;-72
2022/12/23 16:43:40;;;;;;;6.90;1.98;;;20.00;99.90;;;;;;4898975;29;20198;-71
2022/12/23 16:46:15;;;;;;;12.15;2.08;;;20.00;99.90;;;;;;4898739;29;20233;-74
2022/12/23 16:48:47;;;;;;;10.77;1.98;;;20.00;99.90;;;;;;4898857;29;20598;-74
2022/12/23 16:51:17;;;;;;;10.60;1.92;;;20.10;99.90;;;;;;4898809;29;20198;-73
2022/12/23 16:53:44;;;;;;;9.93;2.15;;;20.10;99.90;;;;;;4898802;29;20210;-74
2022/12/23 16:56:12;;;;;;;10.70;2.38;;;20.10;99.90;;;;;;4899469;29;20237;-74
2022/12/23 16:58:39;;;;;;;13.60;2.03;;;20.10;99.90;;;;;;4898633;29;20292;-74
2022/12/23 17:01:06;;;;;;;9.05;1.90;;;20.10;99.90;;;;;;4898624;29;20209;-74
2022/12/23 17:03:34;;;;;;;5.80;1.80;;;20.10;99.90;;;;;;4898840;29;20209;-74
2022/12/23 17:06:01;;;;;;;9.13;1.77;;;20.10;99.90;;;;;;4898545;29;20225;-72
2022/12/23 17:08:27;;;;;;;10.63;2.33;;;20.00;99.90;;;;;;4898610;29;20569;-71
2022/12/23 17:10:56;;;;;;;12.48;2.55;;;20.00;99.90;;;;;;4898617;29;20210;-73
2022/12/23 17:13:23;;;;;;;16.20;2.65;;;20.00;99.90;;;;;;4898587;29;20209;-73
2022/12/23 17:15:50;;;;;;;9.27;2.30;;;20.00;99.90;;;;;;4898452;29;20242;-73
2022/12/23 17:18:18;;;;;;;15.60;2.63;;;20.00;99.90;;;;;;4898701;29;20225;-73
2022/12/23 17:20:47;;;;;;;15.20;2.10;;;20.00;99.90;;;;;;4899139;29;20300;-73
2022/12/23 17:23:28;;;;;;;10.82;2.15;;;20.00;99.90;;;;;;4898624;29;20213;-73
2022/12/23 17:25:55;;;;;;;14.20;2.08;;;19.90;99.90;;;;;;4898228;29;20232;-74
2022/12/23 17:28:22;;;;;;;14.18;2.55;;;19.90;99.90;;;;;;4901023;29;20554;-73
2022/12/23 17:30:53;;;;;;;12.13;2.42;;;19.90;99.90;;;;;;4902645;29;20205;-74
2022/12/23 17:33:20;;;;;;;8.35;2.13;;;19.90;99.90;;;;;;4902388;29;20196;-73
2022/12/23 17:35:48;;;;;;;14.32;1.98;;;19.90;99.90;;;;;;4902115;29;20240;-73
2022/12/23 17:38:16;;;;;;;16.38;2.03;;;20.00;99.90;;;;;;4902174;29;20229;-74
2022/12/23 17:40:44;;;;;;;12.02;2.38;;;20.00;99.90;;;;;;4902233;29;20189;-73
2022/12/23 17:43:13;;;;;;;10.77;2.10;;;20.00;99.90;;;;;;4901880;29;20269;-73
2022/12/23 17:45:40;;;;;;;7.53;2.13;;;20.00;99.90;;;;;;4902002;29;20226;-74
2022/12/23 17:48:06;;;;;;;13.07;2.00;;;20.00;99.90;;;;;;4901789;29;20201;-73
2022/12/23 17:50:34;;;;;;;11.75;2.20;;;20.00;99.90;;;;;;4902055;29;20205;-73
2022/12/23 17:53:02;;;;;;;7.57;1.60;;;20.00;99.90;;;;;;4902039;29;20212;-74
2022/12/23 17:55:29;;;;;;;13.75;2.40;;;20.10;99.90;;;;;;4901572;29;20630;-74
2022/12/23 17:57:55;;;;;;;15.10;1.90;;;20.10;99.90;;;;;;4901862;29;20233;-73
2022/12/23 18:00:23;;;;;;;11.40;2.28;;;20.00;99.90;;;;;;4901556;29;20798;-73
2022/12/23 18:02:50;;;;;;;11.23;1.83;;;20.00;99.90;;;;;;4901843;29;20205;-74
2022/12/23 18:05:23;;;;;;;19.27;2.60;;;20.10;99.90;;;;;;4901742;29;20225;-73
2022/12/23 18:07:50;;;;;;;8.23;1.58;;;20.00;99.90;;;;;;4901832;29;20182;-73
2022/12/23 18:10:21;;;;;;;7.60;1.75;;;20.00;99.90;;;;;;4901728;29;20210;-73
2022/12/23 18:12:51;;;;;;;8.32;2.20;;;20.00;99.90;;;;;;4901772;29;20190;-73
2022/12/23 18:15:21;;;;;;;15.15;2.45;;;20.00;99.90;;;;;;4901619;29;20225;-73
2022/12/23 18:17:48;;;;;;;15.13;2.30;;;20.10;99.90;;;;;;4901519;29;20221;-73
2022/12/23 18:20:16;;;;;;;13.07;2.30;;;20.00;99.90;;;;;;4901510;29;20206;-73
2022/12/23 18:22:44;;;;;;;16.50;2.45;;;19.90;99.90;;;;;;4901436;29;20340;-74
2022/12/23 18:25:15;;;;;;;8.63;1.85;;;20.00;99.90;;;;;;4901961;29;20229;-73
2022/12/23 18:27:43;;;;;;;8.68;1.60;;;20.00;99.90;;;;;;4901481;29;20217;-72
2022/12/23 18:30:11;;;;;;;9.20;2.42;;;20.00;99.90;;;;;;4901373;29;20209;-71
2022/12/23 18:32:39;;;;;;;11.45;1.92;;;20.00;99.90;;;;;;4901269;29;20206;-71
2022/12/23 18:35:22;;;;;;;7.43;1.55;;;20.00;99.90;;;;;;4900845;29;20738;-71
2022/12/23 18:37:49;;;;;;;12.93;1.80;;;20.00;99.90;;;;;;4901210;29;20240;-72
2022/12/23 18:40:16;;;;;;;9.15;1.80;;;20.00;99.90;;;;;;4900078;29;20232;-71
2022/12/23 18:42:44;;;;;;;16.67;2.05;;;20.00;99.90;;;;;;4901112;29;20283;-71
2022/12/23 18:45:26;;;;;;;5.57;1.50;;;20.00;99.90;;;;;;4901068;29;20234;-72
2022/12/23 18:47:52;;;;;;;10.30;1.52;;;20.00;99.90;;;;;;4901087;29;20204;-72
2022/12/23 18:50:19;;;;;;;9.93;2.05;;;20.10;99.90;;;;;;4901050;29;20193;-73
2022/12/23 18:52:46;;;;;;;13.65;1.65;;;20.10;99.90;;;;;;4901002;29;20213;-73
2022/12/23 18:55:13;;;;;;;9.13;1.55;;;20.20;99.90;;;;;;4900830;29;20225;-73
2022/12/23 18:57:40;;;;;;;15.70;2.28;;;20.20;99.90;;;;;;4900788;29;20236;-73
2022/12/23 19:00:13;;;;;;;10.63;1.70;;;20.20;99.90;;;;;;4900509;29;20610;-74
2022/12/23 19:02:40;;;;;;;14.45;2.25;;;20.20;99.90;;;;;;4900960;29;20271;-74
2022/12/23 19:05:07;;;;;;;13.70;2.15;;;20.10;99.90;;;;;;4900703;29;20649;-75
2022/12/23 19:07:34;;;;;;;10.50;1.55;;;20.10;99.90;;;;;;4900647;29;20216;-75
2022/12/23 19:10:01;;;;;;;7.03;1.80;;;20.20;99.90;;;;;;4900680;29;20206;-74
2022/12/23 19:12:28;;;;;;;9.55;2.22;;;20.10;99.90;;;;;;4900633;29;20205;-74
2022/12/23 19:14:54;;;;;;;8.27;1.50;;;20.00;99.90;;;;;;4900546;29;20252;-75
2022/12/23 19:17:22;;;;;;;13.50;1.77;;;20.00;99.90;;;;;;4900655;29;20209;-75
2022/12/23 19:19:49;;;;;;;7.18;1.15;;;19.90;99.90;;;;;;4900492;29;20261;-75
2022/12/23 19:22:16;;;;;;;4.50;1.45;;;;;;;;;;4900196;29;20674;-75
2022/12/23 19:24:43;;;;;;;9.25;1.60;;;19.90;99.90;;;;;;4900463;29;20201;-75
2022/12/23 19:27:09;;;;;;;7.00;2.10;;;19.90;99.90;;;;;;4900411;29;20213;-75
2022/12/23 19:29:36;;;;;;;5.35;1.45;;;19.90;99.90;;;;;;4900431;29;20208;-75
2022/12/23 19:32:03;;;;;;;5.07;1.17;;;19.90;99.90;;;;;;4900244;29;20221;-76
2022/12/23 19:34:31;;;;;;;6.68;1.73;;;19.80;99.90;;;;;;4900232;29;20208;-75
2022/12/23 19:36:58;;;;;;;7.15;1.58;;;19.80;99.90;;;;;;4955659;23;20252;-73
2022/12/23 19:39:25;;;;;;;11.05;1.38;;;19.80;99.90;;;;;;4900305;29;20225;-73
2022/12/23 19:41:52;;;;;;;10.27;1.98;;;19.80;99.90;;;;;;4900176;29;20205;-73